createdAt,value
2023-07-10T00:00:40.024Z,628.00
2023-07-10T00:01:40.131Z,628.00
2023-07-10T00:02:40.082Z,630.00
2023-07-10T00:03:40.149Z,628.00
2023-07-10T00:04:40.104Z,618.00
2023-07-10T00:05:41.121Z,628.00
2023-07-10T00:06:40.144Z,627.00
2023-07-10T00:07:41.146Z,627.00
2023-07-10T00:08:42.938Z,623.00
2023-07-10T00:09:41.158Z,624.00
2023-07-10T00:10:41.153Z,624.00
2023-07-10T00:11:40.125Z,625.00
2023-07-10T00:12:40.123Z,629.00
2023-07-10T00:13:40.162Z,629.00
2023-07-10T00:14:40.132Z,625.00
2023-07-10T00:15:40.117Z,626.00
2023-07-10T00:16:40.116Z,620.00
2023-07-10T00:17:40.161Z,620.00
2023-07-10T00:18:41.298Z,626.00
2023-07-10T00:19:40.099Z,629.00
2023-07-10T00:20:40.078Z,619.00
2023-07-10T00:21:41.067Z,626.00
2023-07-10T00:22:40.071Z,625.00
2023-07-10T00:23:41.055Z,624.00
2023-07-10T00:24:40.048Z,628.00
2023-07-10T00:25:40.029Z,627.00
2023-07-10T00:26:40.027Z,625.00
2023-07-10T00:27:40.028Z,625.00
2023-07-10T00:28:40.044Z,617.00
2023-07-10T00:29:41.008Z,620.00
2023-07-10T00:30:40.065Z,623.00
2023-07-10T00:31:40.999Z,620.00
2023-07-10T00:32:41.035Z,625.00
2023-07-10T00:33:41.017Z,624.00
2023-07-10T00:34:40.989Z,632.00
2023-07-10T00:35:39.996Z,618.00
2023-07-10T00:36:40.968Z,621.00
2023-07-10T00:37:39.956Z,621.00
2023-07-10T00:38:40.966Z,624.00
2023-07-10T00:39:40.010Z,625.00
2023-07-10T00:40:40.945Z,628.00
2023-07-10T00:41:40.923Z,619.00
2023-07-10T00:42:39.930Z,627.00
2023-07-10T00:43:39.993Z,615.00
2023-07-10T00:44:40.905Z,624.00
2023-07-10T00:45:39.895Z,625.00
2023-07-10T00:46:40.986Z,620.00
2023-07-10T00:47:40.928Z,625.00
2023-07-10T00:48:39.869Z,620.00
2023-07-10T00:49:40.913Z,621.00
2023-07-10T00:50:39.878Z,620.00
2023-07-10T00:51:39.858Z,629.00
2023-07-10T00:52:39.871Z,623.00
2023-07-10T00:53:40.850Z,623.00
2023-07-10T00:54:40.839Z,629.00
2023-07-10T00:55:39.824Z,622.00
2023-07-10T00:56:40.839Z,626.00
2023-07-10T00:57:40.802Z,616.00
2023-07-10T00:58:40.820Z,619.00
2023-07-10T00:59:40.809Z,622.00
2023-07-10T01:00:39.805Z,617.00
2023-07-10T01:01:39.778Z,620.00
2023-07-10T01:02:41.003Z,628.00
2023-07-10T01:03:39.779Z,621.00
2023-07-10T01:04:39.773Z,625.00
2023-07-10T01:05:40.785Z,628.00
2023-07-10T01:06:39.763Z,624.00
2023-07-10T01:07:39.741Z,622.00
2023-07-10T01:08:40.743Z,627.00
2023-07-10T01:09:39.729Z,624.00
2023-07-10T01:10:40.727Z,621.00
2023-07-10T01:11:39.727Z,621.00
2023-07-10T01:12:40.703Z,619.00
2023-07-10T01:13:40.755Z,622.00
2023-07-10T01:14:39.716Z,618.00
2023-07-10T01:15:40.687Z,616.00
2023-07-10T01:16:40.730Z,623.00
2023-07-10T01:17:39.767Z,620.00
2023-07-10T01:18:39.686Z,624.00
2023-07-10T01:19:40.698Z,617.00
2023-07-10T01:20:40.678Z,625.00
2023-07-10T01:21:40.689Z,618.00
2023-07-10T01:22:40.642Z,621.00
2023-07-10T01:23:39.646Z,622.00
2023-07-10T01:24:40.646Z,620.00
2023-07-10T01:25:40.648Z,623.00
2023-07-10T01:26:39.621Z,625.00
2023-07-10T01:27:39.636Z,628.00
2023-07-10T01:28:39.639Z,619.00
2023-07-10T01:29:40.681Z,624.00
2023-07-10T01:30:40.622Z,620.00
2023-07-10T01:31:39.583Z,626.00
2023-07-10T01:32:39.595Z,619.00
2023-07-10T01:33:39.572Z,621.00
2023-07-10T01:34:39.602Z,623.00
2023-07-10T01:35:40.558Z,622.00
2023-07-10T01:36:39.562Z,618.00
2023-07-10T01:37:40.584Z,617.00
2023-07-10T01:38:39.548Z,617.00
2023-07-10T01:39:40.546Z,621.00
2023-07-10T01:40:39.567Z,617.00
2023-07-10T01:41:40.569Z,616.00
2023-07-10T01:42:40.584Z,620.00
2023-07-10T01:43:39.612Z,619.00
2023-07-10T01:44:39.612Z,622.00
2023-07-10T01:45:39.618Z,613.00
2023-07-10T01:46:39.641Z,621.00
2023-07-10T01:47:40.699Z,614.00
2023-07-10T01:48:40.752Z,619.00
2023-07-10T01:49:40.697Z,617.00
2023-07-10T01:50:40.704Z,623.00
2023-07-10T01:51:40.704Z,616.00
2023-07-10T01:52:39.737Z,618.00
2023-07-10T01:53:40.770Z,617.00
2023-07-10T01:54:39.761Z,617.00
2023-07-10T01:55:39.786Z,621.00
2023-07-10T01:56:40.787Z,615.00
2023-07-10T01:57:39.820Z,621.00
2023-07-10T01:58:40.815Z,613.00
2023-07-10T01:59:40.899Z,613.00
2023-07-10T02:00:40.868Z,614.00
2023-07-10T02:01:42.548Z,615.00
2023-07-10T02:02:39.906Z,612.00
2023-07-10T02:03:39.954Z,617.00
2023-07-10T02:04:40.856Z,615.00
2023-07-10T02:05:40.850Z,618.00
2023-07-10T02:06:40.863Z,616.00
2023-07-10T02:07:40.820Z,619.00
2023-07-10T02:08:40.837Z,618.00
2023-07-10T02:09:40.846Z,619.00
2023-07-10T02:10:45.078Z,614.00
2023-07-10T02:11:39.800Z,615.00
2023-07-10T02:12:40.783Z,616.00
2023-07-10T02:13:39.841Z,617.00
2023-07-10T02:14:40.789Z,616.00
2023-07-10T02:15:40.794Z,621.00
2023-07-10T02:16:39.775Z,621.00
2023-07-10T02:17:39.858Z,612.00
2023-07-10T02:18:40.755Z,617.00
2023-07-10T02:19:40.749Z,618.00
2023-07-10T02:20:39.741Z,617.00
2023-07-10T02:21:40.730Z,616.00
2023-07-10T02:22:40.731Z,620.00
2023-07-10T02:23:40.706Z,614.00
2023-07-10T02:24:39.712Z,615.00
2023-07-10T02:25:40.765Z,615.00
2023-07-10T02:26:39.727Z,614.00
2023-07-10T02:27:40.691Z,618.00
2023-07-10T02:28:40.693Z,617.00
2023-07-10T02:29:39.674Z,616.00
2023-07-10T02:30:40.681Z,612.00
2023-07-10T02:31:40.682Z,613.00
2023-07-10T02:32:40.701Z,609.00
2023-07-10T02:33:40.693Z,614.00
2023-07-10T02:34:40.647Z,612.00
2023-07-10T02:35:40.637Z,612.00
2023-07-10T02:36:39.626Z,610.00
2023-07-10T02:37:39.633Z,610.00
2023-07-10T02:38:40.606Z,610.00
2023-07-10T02:39:40.636Z,617.00
2023-07-10T02:40:39.616Z,611.00
2023-07-10T02:41:39.638Z,611.00
2023-07-10T02:42:40.590Z,605.00
2023-07-10T02:43:40.589Z,611.00
2023-07-10T02:44:40.595Z,609.00
2023-07-10T02:45:39.591Z,608.00
2023-07-10T02:46:40.625Z,607.00
2023-07-10T02:47:40.588Z,608.00
2023-07-10T02:48:40.546Z,604.00
2023-07-10T02:49:40.560Z,610.00
2023-07-10T02:50:39.547Z,609.00
2023-07-10T02:51:40.549Z,604.00
2023-07-10T02:52:39.537Z,615.00
2023-07-10T02:53:40.531Z,614.00
2023-07-10T02:54:40.522Z,611.00
2023-07-10T02:55:40.532Z,612.00
2023-07-10T02:56:39.508Z,607.00
2023-07-10T02:57:40.607Z,613.00
2023-07-10T02:58:40.487Z,611.00
2023-07-10T02:59:40.482Z,608.00
2023-07-10T03:00:40.492Z,616.00
2023-07-10T03:01:40.510Z,608.00
2023-07-10T03:02:39.491Z,613.00
2023-07-10T03:03:40.444Z,602.00
2023-07-10T03:04:40.465Z,605.00
2023-07-10T03:05:40.434Z,602.00
2023-07-10T03:06:39.698Z,610.00
2023-07-10T03:07:40.435Z,605.00
2023-07-10T03:08:40.410Z,604.00
2023-07-10T03:09:39.406Z,613.00
2023-07-10T03:10:39.402Z,613.00
2023-07-10T03:11:40.403Z,602.00
2023-07-10T03:12:40.389Z,608.00
2023-07-10T03:13:40.409Z,606.00
2023-07-10T03:14:39.400Z,616.00
2023-07-10T03:15:40.397Z,606.00
2023-07-10T03:16:40.371Z,604.00
2023-07-10T03:17:40.428Z,612.00
2023-07-10T03:18:39.405Z,604.00
2023-07-10T03:19:40.352Z,614.00
2023-07-10T03:20:39.365Z,604.00
2023-07-10T03:21:40.410Z,611.00
2023-07-10T03:22:39.418Z,605.00
2023-07-10T03:23:40.420Z,606.00
2023-07-10T03:24:40.461Z,612.00
2023-07-10T03:25:39.469Z,606.00
2023-07-10T03:26:39.514Z,611.00
2023-07-10T03:27:40.525Z,604.00
2023-07-10T03:28:40.537Z,607.00
2023-07-10T03:29:40.584Z,610.00
2023-07-10T03:30:40.597Z,608.00
2023-07-10T03:31:40.609Z,607.00
2023-07-10T03:32:39.684Z,609.00
2023-07-10T03:33:39.664Z,610.00
2023-07-10T03:34:39.670Z,612.00
2023-07-10T03:35:40.705Z,608.00
2023-07-10T03:36:39.721Z,602.00
2023-07-10T03:37:40.759Z,607.00
2023-07-10T03:38:39.785Z,604.00
2023-07-10T03:39:40.839Z,605.00
2023-07-10T03:40:40.841Z,606.00
2023-07-10T03:41:40.889Z,608.00
2023-07-10T03:42:39.864Z,605.00
2023-07-10T03:43:40.892Z,609.00
2023-07-10T03:44:40.920Z,611.00
2023-07-10T03:45:39.979Z,611.00
2023-07-10T03:46:41.045Z,612.00
2023-07-10T03:47:40.023Z,606.00
2023-07-10T03:48:41.044Z,605.00
2023-07-10T03:49:41.076Z,609.00
2023-07-10T03:50:41.114Z,607.00
2023-07-10T03:51:40.150Z,603.00
2023-07-10T03:52:40.169Z,602.00
2023-07-10T03:53:40.193Z,601.00
2023-07-10T03:54:40.228Z,606.00
2023-07-10T03:55:40.285Z,609.00
2023-07-10T03:56:40.289Z,603.00
2023-07-10T03:57:40.310Z,604.00
2023-07-10T03:58:41.346Z,607.00
2023-07-10T03:59:41.364Z,605.00
2023-07-10T04:00:40.461Z,600.00
2023-07-10T04:01:41.455Z,608.00
2023-07-10T04:02:40.478Z,599.00
2023-07-10T04:03:40.586Z,597.00
2023-07-10T04:04:41.519Z,606.00
2023-07-10T04:05:41.528Z,603.00
2023-07-10T04:06:41.624Z,604.00
2023-07-10T04:07:40.582Z,605.00
2023-07-10T04:08:40.602Z,600.00
2023-07-10T04:09:41.633Z,605.00
2023-07-10T04:10:41.652Z,605.00
2023-07-10T04:11:40.692Z,600.00
2023-07-10T04:12:40.733Z,596.00
2023-07-10T04:13:40.781Z,602.00
2023-07-10T04:14:41.820Z,597.00
2023-07-10T04:15:40.818Z,593.00
2023-07-10T04:16:40.851Z,601.00
2023-07-10T04:17:40.940Z,597.00
2023-07-10T04:18:40.913Z,599.00
2023-07-10T04:19:41.963Z,599.00
2023-07-10T04:20:41.990Z,597.00
2023-07-10T04:21:42.034Z,596.00
2023-07-10T04:22:41.053Z,596.00
2023-07-10T04:23:42.107Z,595.00
2023-07-10T04:24:41.145Z,594.00
2023-07-10T04:25:41.192Z,591.00
2023-07-10T04:26:41.223Z,589.00
2023-07-10T04:27:42.287Z,590.00
2023-07-10T04:28:42.278Z,589.00
2023-07-10T04:29:42.314Z,590.00
2023-07-10T04:31:41.397Z,581.00
2023-07-10T04:32:42.434Z,593.00
2023-07-10T04:33:42.481Z,586.00
2023-07-10T04:34:41.509Z,586.00
2023-07-10T04:35:42.550Z,586.00
2023-07-10T04:36:42.561Z,588.00
2023-07-10T04:37:42.608Z,588.00
2023-07-10T04:38:41.654Z,580.00
2023-07-10T04:39:44.698Z,585.00
2023-07-10T04:40:41.705Z,585.00
2023-07-10T04:41:42.698Z,585.00
2023-07-10T04:42:42.676Z,587.00
2023-07-10T04:43:41.677Z,588.00
2023-07-10T04:44:42.657Z,587.00
2023-07-10T04:45:42.659Z,589.00
2023-07-10T04:46:42.709Z,587.00
2023-07-10T04:47:41.702Z,581.00
2023-07-10T04:48:42.650Z,581.00
2023-07-10T04:49:42.659Z,583.00
2023-07-10T04:50:42.625Z,581.00
2023-07-10T04:51:42.620Z,581.00
2023-07-10T04:52:42.626Z,580.00
2023-07-10T04:53:42.620Z,583.00
2023-07-10T04:54:42.606Z,581.00
2023-07-10T04:55:41.606Z,581.00
2023-07-10T04:56:42.575Z,575.00
2023-07-10T04:57:41.578Z,573.00
2023-07-10T04:58:41.562Z,579.00
2023-07-10T04:59:41.587Z,577.00
2023-07-10T05:00:42.555Z,575.00
2023-07-10T05:01:42.549Z,579.00
2023-07-10T05:02:41.628Z,571.00
2023-07-10T05:03:42.530Z,577.00
2023-07-10T05:04:42.612Z,582.00
2023-07-10T05:05:42.568Z,573.00
2023-07-10T05:06:42.509Z,576.00
2023-07-10T05:07:41.553Z,579.00
2023-07-10T05:08:42.716Z,568.00
2023-07-10T05:09:42.634Z,580.00
2023-07-10T05:10:42.679Z,573.00
2023-07-10T05:11:41.731Z,573.00
2023-07-10T05:12:42.750Z,576.00
2023-07-10T05:13:42.855Z,575.00
2023-07-10T05:14:42.823Z,575.00
2023-07-10T05:15:42.884Z,564.00
2023-07-10T05:16:42.973Z,574.00
2023-07-10T05:17:42.975Z,573.00
2023-07-10T05:18:42.993Z,569.00
2023-07-10T05:19:43.026Z,572.00
2023-07-10T05:20:42.056Z,573.00
2023-07-10T05:21:43.128Z,571.00
2023-07-10T05:22:42.146Z,566.00
2023-07-10T05:23:42.209Z,568.00
2023-07-10T05:24:42.254Z,566.00
2023-07-10T05:25:43.295Z,571.00
2023-07-10T05:26:43.330Z,574.00
2023-07-10T05:27:43.391Z,566.00
2023-07-10T05:28:43.432Z,570.00
2023-07-10T05:29:42.458Z,563.00
2023-07-10T05:30:43.504Z,569.00
2023-07-10T05:31:43.623Z,568.00
2023-07-10T05:32:43.618Z,570.00
2023-07-10T05:33:43.621Z,561.00
2023-07-10T05:34:43.658Z,561.00
2023-07-10T05:35:42.691Z,564.00
2023-07-10T05:36:43.720Z,562.00
2023-07-10T05:37:42.789Z,561.00
2023-07-10T05:38:43.828Z,561.00
2023-07-10T05:39:42.858Z,561.00
2023-07-10T05:40:43.922Z,560.00
2023-07-10T05:41:42.958Z,558.00
2023-07-10T05:42:42.991Z,558.00
2023-07-10T05:43:43.036Z,564.00
2023-07-10T05:44:44.073Z,562.00
2023-07-10T05:45:44.180Z,554.00
2023-07-10T05:46:43.231Z,564.00
2023-07-10T05:47:43.282Z,555.00
2023-07-10T05:48:44.265Z,558.00
2023-07-10T05:49:43.304Z,561.00
2023-07-10T05:50:44.366Z,557.00
2023-07-10T05:51:43.373Z,555.00
2023-07-10T05:52:44.484Z,561.00
2023-07-10T05:53:43.440Z,557.00
2023-07-10T05:54:44.482Z,556.00
2023-07-10T05:55:43.517Z,560.00
2023-07-10T05:56:43.566Z,552.00
2023-07-10T05:57:43.597Z,558.00
2023-07-10T05:58:44.644Z,558.00
2023-07-10T05:59:44.676Z,555.00
2023-07-10T06:00:43.714Z,556.00
2023-07-10T06:01:44.811Z,551.00
2023-07-10T06:02:43.846Z,554.00
2023-07-10T06:03:43.848Z,560.00
2023-07-10T06:04:44.867Z,555.00
2023-07-10T06:05:44.895Z,553.00
2023-07-10T06:06:44.941Z,558.00
2023-07-10T06:07:44.985Z,552.00
2023-07-10T06:08:44.043Z,557.00
2023-07-10T06:09:45.045Z,557.00
2023-07-10T06:10:44.103Z,557.00
2023-07-10T06:11:44.128Z,549.00
2023-07-10T06:12:44.166Z,553.00
2023-07-10T06:13:45.254Z,554.00
2023-07-10T06:14:44.237Z,554.00
2023-07-10T06:15:44.293Z,549.00
2023-07-10T06:16:45.322Z,549.00
2023-07-10T06:17:44.483Z,552.00
2023-07-10T06:18:44.404Z,548.00
2023-07-10T06:19:44.436Z,550.00
2023-07-10T06:20:45.480Z,545.00
2023-07-10T06:21:44.526Z,554.00
2023-07-10T06:22:44.560Z,553.00
2023-07-10T06:23:44.652Z,552.00
2023-07-10T06:24:44.673Z,551.00
2023-07-10T06:25:45.692Z,547.00
2023-07-10T06:26:45.749Z,555.00
2023-07-10T06:27:44.760Z,556.00
2023-07-10T06:28:44.814Z,552.00
2023-07-10T06:29:44.864Z,544.00
2023-07-10T06:30:45.902Z,547.00
2023-07-10T06:31:45.993Z,551.00
2023-07-10T06:32:46.032Z,553.00
2023-07-10T06:33:45.033Z,551.00
2023-07-10T06:34:45.099Z,548.00
2023-07-10T06:35:45.102Z,552.00
2023-07-10T06:36:45.172Z,549.00
2023-07-10T06:37:45.208Z,552.00
2023-07-10T06:38:45.273Z,555.00
2023-07-10T06:39:46.287Z,558.00
2023-07-10T06:40:46.366Z,548.00
2023-07-10T06:41:46.381Z,551.00
2023-07-10T06:42:45.427Z,551.00
2023-07-10T06:43:46.456Z,549.00
2023-07-10T06:44:46.498Z,548.00
2023-07-10T06:45:46.613Z,548.00
2023-07-10T06:46:46.676Z,545.00
2023-07-10T06:47:46.655Z,547.00
2023-07-10T06:48:46.671Z,549.00
2023-07-10T06:49:46.688Z,547.00
2023-07-10T06:50:46.725Z,540.00
2023-07-10T06:51:45.769Z,543.00
2023-07-10T06:52:46.806Z,549.00
2023-07-10T06:53:46.841Z,542.00
2023-07-10T06:54:46.870Z,550.00
2023-07-10T06:55:46.905Z,550.00
2023-07-10T06:56:46.979Z,547.00
2023-07-10T06:57:46.960Z,549.00
2023-07-10T06:58:47.011Z,548.00
2023-07-10T06:59:47.032Z,544.00
2023-07-10T07:00:47.132Z,544.00
2023-07-10T07:01:47.153Z,540.00
2023-07-10T07:02:46.198Z,545.00
2023-07-10T07:03:47.214Z,544.00
2023-07-10T07:04:48.037Z,545.00
2023-07-10T07:05:47.197Z,547.00
2023-07-10T07:06:47.186Z,542.00
2023-07-10T07:07:47.186Z,546.00
2023-07-10T07:08:46.178Z,539.00
2023-07-10T07:09:46.163Z,546.00
2023-07-10T07:10:46.169Z,544.00
2023-07-10T07:11:46.166Z,541.00
2023-07-10T07:12:46.166Z,547.00
2023-07-10T07:13:46.170Z,545.00
2023-07-10T07:14:47.132Z,543.00
2023-07-10T07:15:46.116Z,543.00
2023-07-10T07:16:47.187Z,542.00
2023-07-10T07:17:46.133Z,545.00
2023-07-10T07:18:48.434Z,542.00
2023-07-10T07:19:47.108Z,542.00
2023-07-10T07:20:47.089Z,543.00
2023-07-10T07:21:47.092Z,543.00
2023-07-10T07:22:46.080Z,545.00
2023-07-10T07:23:46.082Z,546.00
2023-07-10T07:24:47.102Z,537.00
2023-07-10T07:25:47.081Z,537.00
2023-07-10T07:26:47.139Z,543.00
2023-07-10T07:27:47.068Z,539.00
2023-07-10T07:28:47.075Z,547.00
2023-07-10T07:29:47.044Z,535.00
2023-07-10T07:30:47.042Z,540.00
2023-07-10T07:31:46.035Z,538.00
2023-07-10T07:32:47.048Z,534.00
2023-07-10T07:33:47.027Z,535.00
2023-07-10T07:34:46.001Z,531.00
2023-07-10T07:35:47.063Z,538.00
2023-07-10T07:36:46.010Z,536.00
2023-07-10T07:37:45.996Z,539.00
2023-07-10T07:38:46.985Z,539.00
2023-07-10T07:39:46.999Z,539.00
2023-07-10T07:40:46.564Z,537.00
2023-07-10T07:41:45.984Z,542.00
2023-07-10T07:42:45.948Z,540.00
2023-07-10T07:43:45.953Z,532.00
2023-07-10T07:44:46.984Z,534.00
2023-07-10T07:45:45.928Z,540.00
2023-07-10T07:46:45.951Z,537.00
2023-07-10T07:47:46.055Z,537.00
2023-07-10T07:48:45.922Z,534.00
2023-07-10T07:49:46.920Z,536.00
2023-07-10T07:50:46.890Z,532.00
2023-07-10T07:51:45.917Z,537.00
2023-07-10T07:52:45.877Z,531.00
2023-07-10T07:53:46.900Z,538.00
2023-07-10T07:54:46.887Z,534.00
2023-07-10T07:55:46.866Z,539.00
2023-07-10T07:56:46.885Z,538.00
2023-07-10T07:57:46.847Z,535.00
2023-07-10T07:58:46.920Z,534.00
2023-07-10T07:59:45.881Z,541.00
2023-07-10T08:00:45.928Z,535.00
2023-07-10T08:01:46.929Z,539.00
2023-07-10T08:02:46.998Z,539.00
2023-07-10T08:03:46.095Z,539.00
2023-07-10T08:04:47.049Z,542.00
2023-07-10T08:05:47.157Z,537.00
2023-07-10T08:06:47.023Z,541.00
2023-07-10T08:07:47.051Z,539.00
2023-07-10T08:08:47.054Z,542.00
2023-07-10T08:09:47.068Z,538.00
2023-07-10T08:10:46.068Z,537.00
2023-07-10T08:11:47.092Z,535.00
2023-07-10T08:12:47.097Z,532.00
2023-07-10T08:13:47.123Z,541.00
2023-07-10T08:14:46.143Z,538.00
2023-07-10T08:15:47.200Z,537.00
2023-07-10T08:16:47.208Z,533.00
2023-07-10T08:17:47.225Z,543.00
2023-07-10T08:18:46.203Z,528.00
2023-07-10T08:19:46.217Z,537.00
2023-07-10T08:20:46.248Z,539.00
2023-07-10T08:21:47.258Z,538.00
2023-07-10T08:22:47.269Z,535.00
2023-07-10T08:23:46.279Z,527.00
2023-07-10T08:24:47.278Z,530.00
2023-07-10T08:25:46.303Z,531.00
2023-07-10T08:26:46.296Z,526.00
2023-07-10T08:27:47.325Z,525.00
2023-07-10T08:28:46.310Z,530.00
2023-07-10T08:29:47.312Z,527.00
2023-07-10T08:30:47.371Z,524.00
2023-07-10T08:31:46.348Z,529.00
2023-07-10T08:32:46.365Z,523.00
2023-07-10T08:33:46.323Z,527.00
2023-07-10T08:34:46.349Z,529.00
2023-07-10T08:35:47.340Z,527.00
2023-07-10T08:36:47.363Z,527.00
2023-07-10T08:37:46.344Z,527.00
2023-07-10T08:38:47.372Z,525.00
2023-07-10T08:39:47.365Z,532.00
2023-07-10T08:40:46.373Z,528.00
2023-07-10T08:41:47.367Z,531.00
2023-07-10T08:42:47.363Z,528.00
2023-07-10T08:43:47.377Z,527.00
2023-07-10T08:44:47.380Z,524.00
2023-07-10T08:45:46.391Z,526.00
2023-07-10T08:46:46.481Z,523.00
2023-07-10T08:47:47.524Z,527.00
2023-07-10T08:48:47.399Z,526.00
2023-07-10T08:49:46.421Z,525.00
2023-07-10T08:50:46.395Z,527.00
2023-07-10T08:51:46.401Z,530.00
2023-07-10T08:52:47.434Z,524.00
2023-07-10T08:53:46.402Z,526.00
2023-07-10T08:54:47.399Z,523.00
2023-07-10T08:55:47.402Z,524.00
2023-07-10T08:56:47.386Z,526.00
2023-07-10T08:57:47.401Z,525.00
2023-07-10T08:58:46.373Z,526.00
2023-07-10T08:59:47.409Z,530.00
2023-07-10T09:00:47.379Z,522.00
2023-07-10T09:01:47.448Z,522.00
2023-07-10T09:02:47.378Z,529.00
2023-07-10T09:03:47.425Z,518.00
2023-07-10T09:04:46.364Z,528.00
2023-07-10T09:05:47.385Z,530.00
2023-07-10T09:06:46.356Z,531.00
2023-07-10T09:07:46.344Z,528.00
2023-07-10T09:08:46.334Z,530.00
2023-07-10T09:09:46.348Z,530.00
2023-07-10T09:10:47.360Z,525.00
2023-07-10T09:11:47.339Z,525.00
2023-07-10T09:12:46.336Z,528.00
2023-07-10T09:13:47.384Z,528.00
2023-07-10T09:14:47.339Z,527.00
2023-07-10T09:15:47.308Z,527.00
2023-07-10T09:16:47.422Z,522.00
2023-07-10T09:17:46.373Z,530.00
2023-07-10T09:18:47.332Z,524.00
2023-07-10T09:19:46.382Z,536.00
2023-07-10T09:20:47.337Z,528.00
2023-07-10T09:21:47.324Z,524.00
2023-07-10T09:22:47.357Z,528.00
2023-07-10T09:23:47.307Z,527.00
2023-07-10T09:24:46.354Z,529.00
2023-07-10T09:25:46.361Z,523.00
2023-07-10T09:26:47.352Z,531.00
2023-07-10T09:27:47.320Z,524.00
2023-07-10T09:28:47.373Z,528.00
2023-07-10T09:29:47.372Z,527.00
2023-07-10T09:30:46.362Z,532.00
2023-07-10T09:31:46.490Z,529.00
2023-07-10T09:32:46.477Z,536.00
2023-07-10T09:33:47.441Z,527.00
2023-07-10T09:34:47.499Z,532.00
2023-07-10T09:35:47.529Z,528.00
2023-07-10T09:36:47.553Z,524.00
2023-07-10T09:37:46.550Z,531.00
2023-07-10T09:38:47.575Z,533.00
2023-07-10T09:39:46.588Z,524.00
2023-07-10T09:40:46.617Z,534.00
2023-07-10T09:41:46.598Z,529.00
2023-07-10T09:42:47.611Z,524.00
2023-07-10T09:43:46.616Z,523.00
2023-07-10T09:44:46.647Z,526.00
2023-07-10T09:45:46.651Z,530.00
2023-07-10T09:46:49.571Z,528.00
2023-07-10T09:47:46.682Z,528.00
2023-07-10T09:48:46.652Z,528.00
2023-07-10T09:49:47.759Z,529.00
2023-07-10T09:50:47.627Z,529.00
2023-07-10T09:51:47.648Z,524.00
2023-07-10T09:52:47.613Z,528.00
2023-07-10T09:53:47.606Z,525.00
2023-07-10T09:54:46.590Z,524.00
2023-07-10T09:55:46.605Z,526.00
2023-07-10T09:56:46.593Z,528.00
2023-07-10T09:57:46.577Z,525.00
2023-07-10T09:58:47.574Z,526.00
2023-07-10T09:59:47.562Z,530.00
2023-07-10T10:00:46.554Z,523.00
2023-07-10T10:01:46.572Z,530.00
2023-07-10T10:02:46.600Z,522.00
2023-07-10T10:03:47.610Z,525.00
2023-07-10T10:04:46.519Z,528.00
2023-07-10T10:05:46.538Z,519.00
2023-07-10T10:06:47.517Z,522.00
2023-07-10T10:07:47.586Z,529.00
2023-07-10T10:08:46.515Z,527.00
2023-07-10T10:09:47.563Z,525.00
2023-07-10T10:10:46.495Z,526.00
2023-07-10T10:11:46.479Z,525.00
2023-07-10T10:12:47.496Z,523.00
2023-07-10T10:13:47.473Z,533.00
2023-07-10T10:14:46.475Z,532.00
2023-07-10T10:15:47.451Z,525.00
2023-07-10T10:16:47.459Z,528.00
2023-07-10T10:17:46.613Z,523.00
2023-07-10T10:18:47.590Z,525.00
2023-07-10T10:19:46.455Z,521.00
2023-07-10T10:20:46.471Z,524.00
2023-07-10T10:21:47.523Z,528.00
2023-07-10T10:22:47.579Z,523.00
2023-07-10T10:23:46.639Z,526.00
2023-07-10T10:24:47.664Z,526.00
2023-07-10T10:25:46.684Z,528.00
2023-07-10T10:26:46.744Z,528.00
2023-07-10T10:27:47.772Z,525.00
2023-07-10T10:28:46.818Z,525.00
2023-07-10T10:29:46.817Z,529.00
2023-07-10T10:30:47.864Z,526.00
2023-07-10T10:31:47.981Z,530.00
2023-07-10T10:32:47.016Z,530.00
2023-07-10T10:33:47.013Z,525.00
2023-07-10T10:34:47.051Z,523.00
2023-07-10T10:35:47.100Z,524.00
2023-07-10T10:36:47.165Z,524.00
2023-07-10T10:37:48.196Z,531.00
2023-07-10T10:38:48.225Z,518.00
2023-07-10T10:39:48.269Z,527.00
2023-07-10T10:40:48.249Z,527.00
2023-07-10T10:41:47.279Z,530.00
2023-07-10T10:42:48.334Z,529.00
2023-07-10T10:43:48.328Z,531.00
2023-07-10T10:44:48.424Z,532.00
2023-07-10T10:45:47.451Z,540.00
2023-07-10T10:46:48.402Z,527.00
2023-07-10T10:47:47.473Z,529.00
2023-07-10T10:48:47.479Z,528.00
2023-07-10T10:49:48.473Z,529.00
2023-07-10T10:50:48.482Z,526.00
2023-07-10T10:51:48.523Z,528.00
2023-07-10T10:52:48.542Z,526.00
2023-07-10T10:53:48.581Z,529.00
2023-07-10T10:54:48.588Z,531.00
2023-07-10T10:55:48.705Z,528.00
2023-07-10T10:56:48.659Z,526.00
2023-07-10T10:57:47.702Z,526.00
2023-07-10T10:58:47.739Z,529.00
2023-07-10T10:59:47.778Z,529.00
2023-07-10T11:00:48.811Z,527.00
2023-07-10T11:01:47.928Z,530.00
2023-07-10T11:02:48.985Z,523.00
2023-07-10T11:03:49.030Z,530.00
2023-07-10T11:04:49.007Z,526.00
2023-07-10T11:05:48.131Z,525.00
2023-07-10T11:06:49.120Z,525.00
2023-07-10T11:07:48.205Z,522.00
2023-07-10T11:08:48.250Z,518.00
2023-07-10T11:09:48.277Z,520.00
2023-07-10T11:10:48.339Z,521.00
2023-07-10T11:11:48.401Z,523.00
2023-07-10T11:12:49.429Z,528.00
2023-07-10T11:13:49.505Z,524.00
2023-07-10T11:14:48.532Z,515.00
2023-07-10T11:15:48.728Z,521.00
2023-07-10T11:16:48.648Z,524.00
2023-07-10T11:17:48.759Z,523.00
2023-07-10T11:18:49.758Z,520.00
2023-07-10T11:19:48.806Z,524.00
2023-07-10T11:20:49.861Z,519.00
2023-07-10T11:21:49.917Z,521.00
2023-07-10T11:22:48.968Z,521.00
2023-07-10T11:23:50.009Z,516.00
2023-07-10T11:24:50.077Z,523.00
2023-07-10T11:25:50.130Z,516.00
2023-07-10T11:26:49.172Z,522.00
2023-07-10T11:27:50.289Z,518.00
2023-07-10T11:29:05.862Z,515.00
2023-07-10T11:29:50.297Z,515.00
2023-07-10T11:30:50.327Z,516.00
2023-07-10T11:31:49.337Z,518.00
2023-07-10T11:32:50.356Z,523.00
2023-07-10T11:33:50.266Z,528.00
2023-07-10T11:34:50.256Z,528.00
2023-07-10T11:35:49.256Z,519.00
2023-07-10T11:36:49.246Z,526.00
2023-07-10T11:37:50.274Z,527.00
2023-07-10T11:38:50.253Z,514.00
2023-07-10T11:39:50.294Z,519.00
2023-07-10T11:40:49.250Z,511.00
2023-07-10T11:41:49.219Z,515.00
2023-07-10T11:42:49.225Z,514.00
2023-07-10T11:43:49.248Z,515.00
2023-07-10T11:44:50.206Z,520.00
2023-07-10T11:45:50.214Z,517.00
2023-07-10T11:46:50.200Z,520.00
2023-07-10T11:47:49.324Z,511.00
2023-07-10T11:48:50.175Z,522.00
2023-07-10T11:49:50.188Z,508.00
2023-07-10T11:50:50.162Z,510.00
2023-07-10T11:51:50.155Z,517.00
2023-07-10T11:52:49.232Z,508.00
2023-07-10T11:53:49.289Z,513.00
2023-07-10T11:54:50.353Z,514.00
2023-07-10T11:55:50.385Z,514.00
2023-07-10T11:56:50.458Z,512.00
2023-07-10T11:57:50.518Z,515.00
2023-07-10T11:58:49.565Z,518.00
2023-07-10T11:59:50.638Z,514.00
2023-07-10T12:00:50.741Z,513.00
2023-07-10T12:01:50.732Z,510.00
2023-07-10T12:02:50.221Z,511.00
2023-07-10T12:03:50.917Z,519.00
2023-07-10T12:04:50.905Z,517.00
2023-07-10T12:05:50.956Z,509.00
2023-07-10T12:06:49.992Z,515.00
2023-07-10T12:07:51.058Z,515.00
2023-07-10T12:08:51.109Z,511.00
2023-07-10T12:09:50.169Z,510.00
2023-07-10T12:10:51.202Z,515.00
2023-07-10T12:11:50.238Z,511.00
2023-07-10T12:12:50.289Z,511.00
2023-07-10T12:13:51.370Z,513.00
2023-07-10T12:14:51.390Z,506.00
2023-07-10T12:15:50.484Z,510.00
2023-07-10T12:17:04.597Z,512.00
2023-07-10T12:17:53.621Z,512.00
2023-07-10T12:18:50.518Z,512.00
2023-07-10T12:19:51.468Z,513.00
2023-07-10T12:20:51.454Z,514.00
2023-07-10T12:21:50.469Z,515.00
2023-07-10T12:22:51.435Z,516.00
2023-07-10T12:23:50.429Z,518.00
2023-07-10T12:24:51.418Z,517.00
2023-07-10T12:25:51.423Z,519.00
2023-07-10T12:27:23.551Z,520.00
2023-07-10T12:28:50.400Z,520.00
2023-07-10T12:29:51.371Z,521.00
2023-07-10T12:30:51.391Z,522.00